createdAt,value
2018-07-27T00:02:02.334Z,30.41
2018-07-27T00:04:32.099Z,30.36
2018-07-27T00:07:01.912Z,30.36
2018-07-27T00:09:31.682Z,30.34
2018-07-27T00:12:01.448Z,30.31
2018-07-27T00:14:31.189Z,30.31
2018-07-27T00:17:01.012Z,30.29
2018-07-27T00:19:30.783Z,30.24
2018-07-27T00:22:00.686Z,30.21
2018-07-27T00:24:30.445Z,30.19
2018-07-27T00:27:00.248Z,30.13
2018-07-27T00:29:30.091Z,30.11
2018-07-27T00:31:59.877Z,30.09
2018-07-27T00:34:29.710Z,30.04
2018-07-27T00:36:59.433Z,30.04
2018-07-27T00:39:29.194Z,29.99
2018-07-27T00:41:59.381Z,29.99
2018-07-27T00:44:29.771Z,29.94
2018-07-27T00:46:59.537Z,29.89
2018-07-27T00:49:29.225Z,29.89
2018-07-27T00:51:58.956Z,29.85
2018-07-27T00:54:28.754Z,29.83
2018-07-27T00:56:58.533Z,29.82
2018-07-27T00:59:28.265Z,29.82
2018-07-27T01:01:58.039Z,29.77
2018-07-27T01:04:27.860Z,29.72
2018-07-27T01:06:57.690Z,29.73
2018-07-27T01:09:27.434Z,29.69
2018-07-27T01:11:57.198Z,29.73
2018-07-27T01:14:26.972Z,29.66
2018-07-27T01:16:56.769Z,29.65
2018-07-27T01:19:26.527Z,29.64
2018-07-27T01:21:56.370Z,29.56
2018-07-27T01:24:26.088Z,29.53
2018-07-27T01:26:55.800Z,29.56
2018-07-27T01:29:25.549Z,29.56
2018-07-27T01:31:55.282Z,29.53
2018-07-27T01:34:24.994Z,29.51
2018-07-27T01:36:54.788Z,29.47
2018-07-27T01:39:24.597Z,29.42
2018-07-27T01:41:54.348Z,29.42
2018-07-27T01:44:24.079Z,29.42
2018-07-27T01:46:53.794Z,29.40
2018-07-27T01:49:23.672Z,29.37
2018-07-27T01:51:53.390Z,29.31
2018-07-27T01:54:23.140Z,29.28
2018-07-27T01:56:52.852Z,29.26
2018-07-27T01:59:22.811Z,29.24
2018-07-27T02:01:53.242Z,29.21
2018-07-27T02:04:24.143Z,29.22
2018-07-27T02:06:54.775Z,29.19
2018-07-27T02:09:25.680Z,29.16
2018-07-27T02:11:56.095Z,29.16
2018-07-27T02:14:26.978Z,29.10
2018-07-27T02:16:57.374Z,29.09
2018-07-27T02:19:27.949Z,29.04
2018-07-27T02:21:58.597Z,29.08
2018-07-27T02:24:29.318Z,29.08
2018-07-27T02:26:59.828Z,29.05
2018-07-27T02:29:30.447Z,28.99
2018-07-27T02:32:01.195Z,28.96
2018-07-27T02:34:31.914Z,28.92
2018-07-27T02:37:02.637Z,28.89
2018-07-27T02:39:33.603Z,28.87
2018-07-27T02:42:04.165Z,28.85
2018-07-27T02:44:34.917Z,28.83
2018-07-27T02:47:05.815Z,28.82
2018-07-27T02:49:36.453Z,28.75
2018-07-27T02:52:07.024Z,28.74
2018-07-27T02:54:37.608Z,28.73
2018-07-27T02:57:07.323Z,28.67
2018-07-27T02:59:37.126Z,28.61
2018-07-27T03:02:06.880Z,28.66
2018-07-27T03:04:36.664Z,28.66
2018-07-27T03:07:06.480Z,28.64
2018-07-27T03:09:36.217Z,28.64
2018-07-27T03:12:05.988Z,28.66
2018-07-27T03:14:35.694Z,28.64
2018-07-27T03:17:05.799Z,28.61
2018-07-27T03:19:35.548Z,28.54
2018-07-27T03:22:05.268Z,28.51
2018-07-27T03:24:34.983Z,28.46
2018-07-27T03:27:04.720Z,28.48
2018-07-27T03:29:34.413Z,28.52
2018-07-27T03:32:04.140Z,28.49
2018-07-27T03:34:33.885Z,28.47
2018-07-27T03:37:03.613Z,28.44
2018-07-27T03:39:33.318Z,28.41
2018-07-27T03:42:03.009Z,28.39
2018-07-27T03:44:32.744Z,28.43
2018-07-27T03:47:02.505Z,28.51
2018-07-27T03:49:32.671Z,28.53
2018-07-27T03:52:02.389Z,28.45
2018-07-27T03:54:32.100Z,28.43
2018-07-27T03:57:01.827Z,28.46
2018-07-27T03:59:31.666Z,28.55
2018-07-27T04:02:01.444Z,28.59
2018-07-27T04:04:31.281Z,28.62
2018-07-27T04:07:01.034Z,28.64
2018-07-27T04:09:30.741Z,28.62
2018-07-27T04:12:00.459Z,28.62
2018-07-27T04:14:30.180Z,28.55
2018-07-27T04:17:00.011Z,28.52
2018-07-27T04:19:29.929Z,28.47
2018-07-27T04:22:00.813Z,28.47
2018-07-27T04:24:31.305Z,28.48
2018-07-27T04:27:02.130Z,28.49
2018-07-27T04:32:42.078Z,28.48
2018-07-27T04:35:12.069Z,28.48
2018-07-27T04:37:42.116Z,28.35
2018-07-27T04:40:12.676Z,28.26
2018-07-27T04:42:42.674Z,28.17
2018-07-27T04:45:12.851Z,28.12
2018-07-27T04:47:42.871Z,28.08
2018-07-27T04:50:13.235Z,28.02
2018-07-27T04:52:43.758Z,28.00
2018-07-27T04:55:14.462Z,28.00
2018-07-27T04:57:44.898Z,28.03
2018-07-27T05:00:15.602Z,28.01
2018-07-27T05:02:46.138Z,28.02
2018-07-27T05:05:16.760Z,28.03
2018-07-27T05:07:47.400Z,28.03
2018-07-27T05:10:23.743Z,28.12
2018-07-27T05:12:53.514Z,28.11
2018-07-27T05:15:23.289Z,28.14
2018-07-27T05:17:53.049Z,28.17
2018-07-27T05:20:22.830Z,28.19
2018-07-27T05:22:52.632Z,28.20
2018-07-27T05:25:22.385Z,28.23
2018-07-27T05:27:52.158Z,28.18
2018-07-27T05:30:21.919Z,28.14
2018-07-27T05:32:51.738Z,28.21
2018-07-27T05:35:21.519Z,28.27
2018-07-27T05:37:51.652Z,28.33
2018-07-27T05:40:21.380Z,28.36
2018-07-27T05:42:51.202Z,28.38
2018-07-27T05:45:20.993Z,28.41
2018-07-27T05:47:50.768Z,28.46
2018-07-27T05:50:20.567Z,28.55
2018-07-27T05:52:50.367Z,28.63
2018-07-27T05:55:20.136Z,28.67
2018-07-27T05:57:49.962Z,28.71
2018-07-27T06:00:19.763Z,28.76
2018-07-27T06:02:49.566Z,28.80
2018-07-27T06:05:19.368Z,28.80
2018-07-27T06:07:49.124Z,28.81
2018-07-27T06:10:18.864Z,28.72
2018-07-27T06:12:48.657Z,28.68
2018-07-27T06:15:18.452Z,28.74
2018-07-27T06:17:48.261Z,28.80
2018-07-27T06:20:18.068Z,28.86
2018-07-27T06:22:47.808Z,28.89
2018-07-27T06:25:17.577Z,28.97
2018-07-27T06:27:47.431Z,29.05
2018-07-27T06:30:17.245Z,29.04
2018-07-27T06:32:46.988Z,28.98
2018-07-27T06:35:16.853Z,28.97
2018-07-27T06:37:46.597Z,29.04
2018-07-27T06:40:16.370Z,29.17
2018-07-27T06:42:46.126Z,29.19
2018-07-27T06:45:15.922Z,29.17
2018-07-27T06:47:45.694Z,29.25
2018-07-27T06:50:15.479Z,29.34
2018-07-27T06:52:45.444Z,29.33
2018-07-27T06:55:16.045Z,29.38
2018-07-27T06:57:46.729Z,29.46
2018-07-27T07:00:17.115Z,29.57
2018-07-27T07:02:47.786Z,29.64
2018-07-27T07:05:18.414Z,29.69
2018-07-27T07:07:49.294Z,29.77
2018-07-27T07:10:19.837Z,29.85
2018-07-27T07:12:50.685Z,29.88
2018-07-27T07:15:21.115Z,29.94
2018-07-27T07:17:52.021Z,29.99
2018-07-27T07:20:22.398Z,30.07
2018-07-27T07:22:53.253Z,30.16
2018-07-27T07:25:23.520Z,30.24
2018-07-27T07:27:54.230Z,30.32
2018-07-27T07:30:24.567Z,30.41
2018-07-27T07:32:55.387Z,30.46
2018-07-27T07:35:25.945Z,30.50
2018-07-27T07:37:56.804Z,30.59
2018-07-27T07:40:27.355Z,30.53
2018-07-27T07:42:58.289Z,30.50
2018-07-27T07:45:29.151Z,30.57
2018-07-27T07:47:59.652Z,30.71
2018-07-27T07:50:29.986Z,30.81
2018-07-27T07:52:59.836Z,30.89
2018-07-27T07:55:29.586Z,30.96
2018-07-27T07:57:59.376Z,31.03
2018-07-27T08:00:29.191Z,31.08
2018-07-27T08:02:59.411Z,31.18
2018-07-27T08:05:30.092Z,31.28
2018-07-27T08:07:59.827Z,31.33
2018-07-27T08:10:29.636Z,31.40
2018-07-27T08:12:59.460Z,31.47
2018-07-27T08:15:29.308Z,31.55
2018-07-27T08:17:59.087Z,31.62
2018-07-27T08:20:28.821Z,31.68
2018-07-27T08:22:58.608Z,31.74
2018-07-27T08:25:45.400Z,31.76
2018-07-27T08:28:31.602Z,31.81
2018-07-27T08:31:04.220Z,31.93
2018-07-27T08:33:34.011Z,31.97
2018-07-27T08:36:03.716Z,32.03
2018-07-27T08:38:33.471Z,32.11
2018-07-27T08:41:03.322Z,32.21
2018-07-27T08:43:33.131Z,32.23
2018-07-27T08:46:03.027Z,32.31
2018-07-27T08:48:32.901Z,32.31
2018-07-27T08:51:02.682Z,32.35
2018-07-27T08:53:32.451Z,32.38
2018-07-27T08:56:02.255Z,32.41
2018-07-27T08:58:32.087Z,32.49
2018-07-27T09:01:01.867Z,32.55
2018-07-27T09:03:31.716Z,32.61
2018-07-27T09:06:01.627Z,32.68
2018-07-27T09:08:31.453Z,32.59
2018-07-27T09:11:01.225Z,32.80
2018-07-27T09:13:31.160Z,32.85
2018-07-27T09:16:00.996Z,32.90
2018-07-27T09:18:30.742Z,32.96
2018-07-27T09:21:00.616Z,33.00
2018-07-27T09:23:30.477Z,33.01
2018-07-27T09:26:00.381Z,33.03
2018-07-27T09:28:30.216Z,33.02
2018-07-27T09:31:00.051Z,33.01
2018-07-27T09:33:29.870Z,33.07
2018-07-27T09:35:59.740Z,33.07
2018-07-27T09:38:29.527Z,33.21
2018-07-27T09:40:59.420Z,33.20
2018-07-27T09:43:30.596Z,33.22
2018-07-27T09:46:01.021Z,33.20
2018-07-27T09:48:30.858Z,33.28
2018-07-27T09:51:02.021Z,33.34
2018-07-27T09:53:32.290Z,33.36
2018-07-27T09:56:02.867Z,33.35
2018-07-27T09:58:33.531Z,33.36
2018-07-27T10:01:12.660Z,33.40
2018-07-27T10:03:42.505Z,33.42
2018-07-27T10:06:12.346Z,33.47
2018-07-27T10:08:42.605Z,33.47
2018-07-27T10:11:12.786Z,33.51
2018-07-27T10:13:42.757Z,33.58
2018-07-27T10:16:13.486Z,33.62
2018-07-27T10:18:43.332Z,33.61
2018-07-27T10:21:13.240Z,33.64
2018-07-27T10:23:43.151Z,33.64
2018-07-27T10:26:12.980Z,33.66
2018-07-27T10:28:42.755Z,33.68
2018-07-27T10:31:12.599Z,33.70
2018-07-27T10:33:42.476Z,33.77
2018-07-27T10:36:12.297Z,33.89
2018-07-27T10:38:42.661Z,33.88
2018-07-27T10:41:13.277Z,33.92
2018-07-27T10:43:43.979Z,33.96
2018-07-27T10:46:14.540Z,34.08
2018-07-27T10:48:45.016Z,34.13
2018-07-27T10:51:15.582Z,34.20
2018-07-27T10:53:46.457Z,34.24
2018-07-27T10:56:16.770Z,34.28
2018-07-27T10:58:47.754Z,34.30
2018-07-27T11:01:18.042Z,34.34
2018-07-27T11:03:48.736Z,34.37
2018-07-27T11:06:19.302Z,34.41
2018-07-27T11:08:50.407Z,34.51
2018-07-27T11:11:20.768Z,34.50
2018-07-27T11:13:51.404Z,34.66
2018-07-27T11:16:22.147Z,34.73
2018-07-27T11:18:52.786Z,34.83
2018-07-27T11:21:23.693Z,34.87
2018-07-27T11:23:54.109Z,34.90
2018-07-27T11:26:24.747Z,34.99
2018-07-27T11:28:55.221Z,34.98
2018-07-27T11:31:25.902Z,34.99
2018-07-27T11:33:56.842Z,35.06
2018-07-27T11:36:27.334Z,35.08
2018-07-27T11:38:58.061Z,35.07
2018-07-27T11:41:28.477Z,35.13
2018-07-27T11:43:59.442Z,35.19
2018-07-27T11:46:29.896Z,35.28
2018-07-27T11:49:00.366Z,35.35
2018-07-27T11:51:30.980Z,35.49
2018-07-27T11:54:01.745Z,35.49
2018-07-27T11:56:32.435Z,35.45
2018-07-27T11:59:03.230Z,35.46
2018-07-27T12:01:33.699Z,35.58
2018-07-27T12:04:04.577Z,35.64
2018-07-27T12:06:34.960Z,35.72
2018-07-27T12:09:08.660Z,35.79
2018-07-27T12:11:38.582Z,35.79
2018-07-27T12:14:08.596Z,35.86
2018-07-27T12:16:38.475Z,35.93
2018-07-27T12:19:08.285Z,35.98
2018-07-27T12:21:38.570Z,36.04
2018-07-27T12:24:08.151Z,36.14
2018-07-27T12:26:38.051Z,36.24
2018-07-27T12:29:08.173Z,36.37
2018-07-27T12:31:38.097Z,36.50
2018-07-27T12:34:08.007Z,36.55
2018-07-27T12:36:37.970Z,36.59
2018-07-27T12:39:11.226Z,36.67
2018-07-27T12:41:42.175Z,36.74
2018-07-27T12:44:12.301Z,36.83
2018-07-27T12:46:42.167Z,36.86
2018-07-27T12:49:11.960Z,36.87
2018-07-27T12:51:41.930Z,36.74
2018-07-27T12:54:11.805Z,36.96
2018-07-27T12:56:41.637Z,37.07
2018-07-27T12:59:11.508Z,37.20
2018-07-27T13:01:41.406Z,37.29
2018-07-27T13:04:11.231Z,37.32
2018-07-27T13:06:41.322Z,37.32
2018-07-27T13:09:12.418Z,37.35
2018-07-27T13:11:42.217Z,37.42
2018-07-27T13:14:12.116Z,37.49
2018-07-27T13:16:42.064Z,37.58
2018-07-27T13:19:14.872Z,37.65
2018-07-27T13:21:44.916Z,37.77
2018-07-27T13:24:15.435Z,37.98
2018-07-27T13:26:45.297Z,37.96
2018-07-27T13:29:15.176Z,38.00
2018-07-27T13:31:50.107Z,38.06
2018-07-27T13:37:19.575Z,38.29
2018-07-27T13:39:50.374Z,38.36
2018-07-27T13:42:22.705Z,38.53
2018-07-27T13:44:52.608Z,38.71
2018-07-27T13:47:22.686Z,38.76
2018-07-27T13:49:53.245Z,38.55
2018-07-27T13:52:24.143Z,38.47
2018-07-27T13:54:54.022Z,38.44
2018-07-27T13:57:23.869Z,38.35
2018-07-27T13:59:53.727Z,38.31
2018-07-27T14:02:23.600Z,38.24
2018-07-27T14:04:53.367Z,38.17
2018-07-27T14:07:23.241Z,38.12
2018-07-27T14:09:53.226Z,38.12
2018-07-27T14:12:23.267Z,38.13
2018-07-27T14:14:53.009Z,38.08
2018-07-27T14:17:22.811Z,38.08
2018-07-27T14:19:52.663Z,38.14
2018-07-27T14:22:22.428Z,38.23
2018-07-27T14:24:52.482Z,38.22
2018-07-27T14:27:22.253Z,38.18
2018-07-27T14:29:52.045Z,38.19
2018-07-27T14:32:21.912Z,38.27
2018-07-27T14:34:51.768Z,38.35
2018-07-27T14:37:21.628Z,38.45
2018-07-27T14:39:51.471Z,38.50
2018-07-27T14:42:21.375Z,38.55
2018-07-27T14:44:51.212Z,38.62
2018-07-27T14:47:21.025Z,38.62
2018-07-27T14:49:50.940Z,38.48
2018-07-27T14:52:20.867Z,38.48
2018-07-27T14:54:50.731Z,38.49
2018-07-27T14:57:20.496Z,38.44
2018-07-27T14:59:50.317Z,38.54
2018-07-27T15:02:20.187Z,38.65
2018-07-27T15:04:50.049Z,38.74
2018-07-27T15:07:19.777Z,38.86
2018-07-27T15:09:49.531Z,38.91
2018-07-27T15:12:19.243Z,38.87
2018-07-27T15:14:49.146Z,38.84
2018-07-27T15:17:19.093Z,38.83
2018-07-27T15:19:48.987Z,38.84
2018-07-27T15:22:18.788Z,38.91
2018-07-27T15:24:48.721Z,38.97
2018-07-27T15:27:18.482Z,38.89
2018-07-27T15:29:48.181Z,38.88
2018-07-27T15:32:18.032Z,38.95
2018-07-27T15:34:47.861Z,38.89
2018-07-27T15:37:17.621Z,39.01
2018-07-27T15:39:47.521Z,39.18
2018-07-27T15:42:17.462Z,39.28
2018-07-27T15:44:47.460Z,39.29
2018-07-27T15:47:17.296Z,39.38
2018-07-27T15:49:47.206Z,39.50
2018-07-27T15:52:17.048Z,39.60
2018-07-27T15:54:46.832Z,39.67
2018-07-27T15:57:16.738Z,40.02
2018-07-27T15:59:46.551Z,40.27
2018-07-27T16:02:16.613Z,40.86
2018-07-27T16:04:47.403Z,41.23
2018-07-27T16:07:17.963Z,41.97
2018-07-27T16:09:48.743Z,42.88
2018-07-27T16:12:19.424Z,43.25
2018-07-27T16:14:50.267Z,43.57
2018-07-27T16:17:20.746Z,44.12
2018-07-27T16:19:51.751Z,44.70
2018-07-27T16:22:22.127Z,44.72
2018-07-27T16:24:52.971Z,45.55
2018-07-27T16:27:23.575Z,45.86
2018-07-27T16:29:54.232Z,45.49
2018-07-27T16:32:24.858Z,45.71
2018-07-27T16:34:55.451Z,46.24
2018-07-27T16:37:26.007Z,46.33
2018-07-27T16:39:56.859Z,46.50
2018-07-27T16:42:27.422Z,46.55
2018-07-27T16:44:57.993Z,46.30
2018-07-27T16:47:28.621Z,46.61
2018-07-27T16:49:59.350Z,46.77
2018-07-27T16:52:29.731Z,46.79
2018-07-27T16:55:00.444Z,46.66
2018-07-27T16:57:30.991Z,46.34
2018-07-27T17:00:01.584Z,46.54
2018-07-27T17:02:31.523Z,46.54
2018-07-27T17:05:01.490Z,46.56
2018-07-27T17:07:31.338Z,46.17
2018-07-27T17:10:01.204Z,46.13
2018-07-27T17:12:31.009Z,46.14
2018-07-27T17:15:00.811Z,46.29
2018-07-27T17:17:30.933Z,45.95
2018-07-27T17:20:00.905Z,45.48
2018-07-27T17:22:30.946Z,45.71
2018-07-27T17:25:00.794Z,45.43
2018-07-27T17:27:30.671Z,45.23
2018-07-27T17:30:00.449Z,45.30
2018-07-27T17:32:30.303Z,45.58
2018-07-27T17:35:00.138Z,45.03
2018-07-27T17:37:31.028Z,45.30
2018-07-27T17:40:01.205Z,44.93
2018-07-27T17:42:31.088Z,44.39
2018-07-27T17:45:01.084Z,44.40
2018-07-27T17:47:31.008Z,44.25
2018-07-27T17:50:01.031Z,44.10
2018-07-27T17:52:30.886Z,44.00
2018-07-27T17:55:00.782Z,43.94
2018-07-27T17:57:30.632Z,44.05
2018-07-27T18:00:00.488Z,44.03
2018-07-27T18:02:30.360Z,43.98
2018-07-27T18:05:00.228Z,43.75
2018-07-27T18:07:30.233Z,43.07
2018-07-27T18:09:59.942Z,42.64
2018-07-27T18:12:29.843Z,42.68
2018-07-27T18:14:59.725Z,42.61
2018-07-27T18:17:29.569Z,42.23
2018-07-27T18:19:59.588Z,41.97
2018-07-27T18:22:29.485Z,41.41
2018-07-27T18:24:59.472Z,40.67
2018-07-27T18:27:29.325Z,40.00
2018-07-27T18:29:59.285Z,39.71
2018-07-27T18:32:29.290Z,39.51
2018-07-27T18:34:59.237Z,39.07
2018-07-27T18:37:29.078Z,38.44
2018-07-27T18:39:59.108Z,37.84
2018-07-27T18:42:29.057Z,37.29
2018-07-27T18:44:59.010Z,36.82
2018-07-27T18:47:29.693Z,36.46
2018-07-27T18:50:00.258Z,36.09
2018-07-27T18:52:31.171Z,35.88
2018-07-27T18:55:01.745Z,35.69
2018-07-27T18:57:32.304Z,35.49
2018-07-27T19:00:03.089Z,35.34
2018-07-27T19:02:33.857Z,35.21
2018-07-27T19:05:04.632Z,35.11
2018-07-27T19:07:35.142Z,35.05
2018-07-27T19:10:06.081Z,35.02
2018-07-27T19:12:36.204Z,34.97
2018-07-27T19:15:08.451Z,34.88
2018-07-27T19:17:38.595Z,34.80
2018-07-27T19:20:08.745Z,34.75
2018-07-27T19:22:38.795Z,34.66
2018-07-27T19:25:09.176Z,34.53
2018-07-27T19:27:39.114Z,34.50
2018-07-27T19:30:11.379Z,34.49
2018-07-27T19:32:41.472Z,34.47
2018-07-27T19:35:12.100Z,34.37
2018-07-27T19:37:42.664Z,34.31
2018-07-27T19:40:13.227Z,34.31
2018-07-27T19:42:43.924Z,34.32
2018-07-27T19:45:14.347Z,34.26
2018-07-27T19:47:44.958Z,34.22
2018-07-27T19:50:15.377Z,34.15
2018-07-27T19:52:46.232Z,34.14
2018-07-27T19:55:16.860Z,34.13
2018-07-27T19:57:47.610Z,33.98
2018-07-27T20:00:18.103Z,33.96
2018-07-27T20:02:48.333Z,33.96
2018-07-27T20:05:18.295Z,33.91
2018-07-27T20:07:48.628Z,33.95
2018-07-27T20:10:18.591Z,33.94
2018-07-27T20:12:48.532Z,33.89
2018-07-27T20:15:18.440Z,33.81
2018-07-27T20:17:48.484Z,33.75
2018-07-27T20:20:18.478Z,33.69
2018-07-27T20:22:48.343Z,33.62
2018-07-27T20:25:18.136Z,33.56
2018-07-27T20:27:48.149Z,33.53
2018-07-27T20:30:17.972Z,33.50
2018-07-27T20:32:47.995Z,33.49
2018-07-27T20:35:17.912Z,33.46
2018-07-27T20:37:47.831Z,33.45
2018-07-27T20:40:17.804Z,33.43
2018-07-27T20:42:47.738Z,33.43
2018-07-27T20:45:17.758Z,33.38
2018-07-27T20:47:47.740Z,33.36
2018-07-27T20:50:17.588Z,33.30
2018-07-27T20:52:47.623Z,33.24
2018-07-27T20:55:17.732Z,33.24
2018-07-27T20:57:47.679Z,33.21
2018-07-27T21:00:17.624Z,33.19
2018-07-27T21:02:47.498Z,33.15
2018-07-27T21:05:17.384Z,33.13
2018-07-27T21:07:47.262Z,33.07
2018-07-27T21:10:17.333Z,32.96
2018-07-27T21:12:47.192Z,32.86
2018-07-27T21:15:17.125Z,32.85
2018-07-27T21:17:47.076Z,32.77
2018-07-27T21:20:17.257Z,32.74
2018-07-27T21:22:47.153Z,32.71
2018-07-27T21:25:17.140Z,32.64
2018-07-27T21:27:46.985Z,32.59
2018-07-27T21:30:16.828Z,32.52
2018-07-27T21:32:46.827Z,32.49
2018-07-27T21:35:16.749Z,32.45
2018-07-27T21:37:46.767Z,32.40
2018-07-27T21:40:16.890Z,32.32
2018-07-27T21:42:46.737Z,32.28
2018-07-27T21:45:16.589Z,32.25
2018-07-27T21:47:46.413Z,32.20
2018-07-27T21:50:16.692Z,32.17
2018-07-27T21:52:47.010Z,32.13
2018-07-27T21:55:18.068Z,32.09
2018-07-27T21:57:48.510Z,32.05
2018-07-27T22:00:19.663Z,32.02
2018-07-27T22:02:49.952Z,32.00
2018-07-27T22:05:20.713Z,31.99
2018-07-27T22:07:54.525Z,31.96
2018-07-27T22:10:24.872Z,31.91
2018-07-27T22:12:55.162Z,31.84
2018-07-27T22:15:26.058Z,31.79
2018-07-27T22:17:55.961Z,31.75
2018-07-27T22:20:25.851Z,31.72
2018-07-27T22:22:55.738Z,31.71
2018-07-27T22:25:26.322Z,31.67
2018-07-27T22:27:56.917Z,31.62
2018-07-27T22:30:27.694Z,31.61
2018-07-27T22:32:58.217Z,31.54
2018-07-27T22:35:28.762Z,31.51
2018-07-27T22:37:59.373Z,31.49
2018-07-27T22:40:30.382Z,31.49
2018-07-27T22:43:00.863Z,31.43
2018-07-27T22:45:31.683Z,31.38
2018-07-27T22:48:02.316Z,31.32
2018-07-27T22:50:33.049Z,31.25
2018-07-27T22:53:03.679Z,31.26
2018-07-27T22:55:34.369Z,31.26
2018-07-27T22:58:04.810Z,31.24
2018-07-27T23:00:35.628Z,31.19
2018-07-27T23:03:06.439Z,31.16
2018-07-27T23:05:36.910Z,31.08
2018-07-27T23:08:07.688Z,31.09
2018-07-27T23:10:38.473Z,31.06
2018-07-27T23:13:08.908Z,31.07
2018-07-27T23:15:39.838Z,31.05
2018-07-27T23:18:10.432Z,31.05
2018-07-27T23:20:41.337Z,31.06
2018-07-27T23:23:11.903Z,31.03
2018-07-27T23:25:42.769Z,31.03
2018-07-27T23:28:13.196Z,30.97
2018-07-27T23:30:44.044Z,30.96
2018-07-27T23:33:14.522Z,30.93
2018-07-27T23:35:45.304Z,30.89
2018-07-27T23:38:15.790Z,30.87
2018-07-27T23:40:46.330Z,30.85
2018-07-27T23:43:16.790Z,30.78
2018-07-27T23:45:47.559Z,30.78
2018-07-27T23:48:18.221Z,30.74
2018-07-27T23:50:48.957Z,30.70
2018-07-27T23:53:19.675Z,30.69
2018-07-27T23:55:50.192Z,30.62
2018-07-27T23:58:20.873Z,30.51
